sensor_id;sensor_type;location;lat;lon;timestamp;P1;durP1;ratioP1;P2;durP2;ratioP2
39140;SDS011;24875;48.436;10.298;2023-04-03T00:00:26;5.67;;;3.00;;
39140;SDS011;24875;48.436;10.298;2023-04-03T00:02:52;5.90;;;3.17;;
39140;SDS011;24875;48.436;10.298;2023-04-03T00:05:19;8.07;;;3.07;;
39140;SDS011;24875;48.436;10.298;2023-04-03T00:07:45;5.20;;;3.13;;
39140;SDS011;24875;48.436;10.298;2023-04-03T00:10:13;4.80;;;2.80;;
39140;SDS011;24875;48.436;10.298;2023-04-03T00:12:40;7.30;;;2.80;;
39140;SDS011;24875;48.436;10.298;2023-04-03T00:15:07;5.73;;;2.60;;
39140;SDS011;24875;48.436;10.298;2023-04-03T00:17:34;6.37;;;3.33;;
39140;SDS011;24875;48.436;10.298;2023-04-03T00:20:01;4.10;;;2.30;;
39140;SDS011;24875;48.436;10.298;2023-04-03T00:22:27;4.07;;;2.33;;
39140;SDS011;24875;48.436;10.298;2023-04-03T00:24:54;6.63;;;3.20;;
39140;SDS011;24875;48.436;10.298;2023-04-03T00:27:22;5.23;;;3.00;;
39140;SDS011;24875;48.436;10.298;2023-04-03T00:29:48;4.27;;;2.60;;
39140;SDS011;24875;48.436;10.298;2023-04-03T00:32:15;3.77;;;2.30;;
39140;SDS011;24875;48.436;10.298;2023-04-03T00:34:41;5.63;;;3.03;;
39140;SDS011;24875;48.436;10.298;2023-04-03T00:37:08;7.53;;;3.13;;
39140;SDS011;24875;48.436;10.298;2023-04-03T00:39:34;4.87;;;2.93;;
39140;SDS011;24875;48.436;10.298;2023-04-03T12:51:28;7.23;;;2.10;;
39140;SDS011;24875;48.436;10.298;2023-04-03T12:54:01;3.60;;;1.80;;
39140;SDS011;24875;48.436;10.298;2023-04-03T12:56:31;3.53;;;1.97;;
39140;SDS011;24875;48.436;10.298;2023-04-03T12:59:12;4.43;;;2.27;;
39140;SDS011;24875;48.436;10.298;2023-04-03T13:01:40;2.03;;;1.40;;
39140;SDS011;24875;48.436;10.298;2023-04-03T13:04:09;3.80;;;2.13;;
39140;SDS011;24875;48.436;10.298;2023-04-03T13:06:39;7.13;;;2.03;;
39140;SDS011;24875;48.436;10.298;2023-04-03T13:09:17;3.47;;;2.00;;
39140;SDS011;24875;48.436;10.298;2023-04-03T13:11:46;3.33;;;2.10;;
39140;SDS011;24875;48.436;10.298;2023-04-03T13:14:15;3.87;;;2.07;;
39140;SDS011;24875;48.436;10.298;2023-04-03T13:16:52;3.07;;;1.67;;
39140;SDS011;24875;48.436;10.298;2023-04-03T13:19:19;2.90;;;1.80;;
39140;SDS011;24875;48.436;10.298;2023-04-03T13:21:55;4.60;;;2.40;;
39140;SDS011;24875;48.436;10.298;2023-04-03T13:24:25;5.83;;;1.80;;
39140;SDS011;24875;48.436;10.298;2023-04-03T13:26:52;2.23;;;1.50;;
39140;SDS011;24875;48.436;10.298;2023-04-03T13:29:21;2.37;;;1.53;;
39140;SDS011;24875;48.436;10.298;2023-04-03T13:31:52;2.67;;;1.90;;
39140;SDS011;24875;48.436;10.298;2023-04-03T13:34:21;5.13;;;2.00;;
39140;SDS011;24875;48.436;10.298;2023-04-03T13:36:57;4.27;;;1.97;;
39140;SDS011;24875;48.436;10.298;2023-04-03T13:39:27;2.63;;;1.60;;
39140;SDS011;24875;48.436;10.298;2023-04-03T13:41:56;6.60;;;2.10;;
39140;SDS011;24875;48.436;10.298;2023-04-03T13:44:28;5.03;;;2.10;;
39140;SDS011;24875;48.436;10.298;2023-04-03T13:46:58;6.03;;;2.30;;
39140;SDS011;24875;48.436;10.298;2023-04-03T13:49:30;7.33;;;2.50;;
39140;SDS011;24875;48.436;10.298;2023-04-03T13:52:00;3.10;;;2.20;;
39140;SDS011;24875;48.436;10.298;2023-04-03T13:54:29;6.50;;;2.10;;
39140;SDS011;24875;48.436;10.298;2023-04-03T13:56:59;3.03;;;1.97;;
39140;SDS011;24875;48.436;10.298;2023-04-03T13:59:28;3.40;;;1.83;;
39140;SDS011;24875;48.436;10.298;2023-04-03T14:02:09;5.40;;;2.10;;
39140;SDS011;24875;48.436;10.298;2023-04-03T14:07:26;3.67;;;2.00;;
39140;SDS011;24875;48.436;10.298;2023-04-03T14:09:54;2.73;;;1.67;;
39140;SDS011;24875;48.436;10.298;2023-04-03T14:12:22;2.90;;;1.77;;
39140;SDS011;24875;48.436;10.298;2023-04-03T14:14:52;2.50;;;1.73;;
39140;SDS011;24875;48.436;10.298;2023-04-03T14:17:20;3.00;;;1.60;;
39140;SDS011;24875;48.436;10.298;2023-04-03T14:19:49;2.73;;;1.43;;
39140;SDS011;24875;48.436;10.298;2023-04-03T14:22:18;2.93;;;1.47;;
39140;SDS011;24875;48.436;10.298;2023-04-03T14:24:48;2.60;;;1.53;;
39140;SDS011;24875;48.436;10.298;2023-04-03T14:27:17;5.73;;;1.70;;
39140;SDS011;24875;48.436;10.298;2023-04-03T14:29:46;2.00;;;1.67;;
39140;SDS011;24875;48.436;10.298;2023-04-03T14:32:13;2.27;;;1.13;;
39140;SDS011;24875;48.436;10.298;2023-04-03T14:34:42;5.50;;;2.10;;
39140;SDS011;24875;48.436;10.298;2023-04-03T14:37:10;3.33;;;1.93;;
39140;SDS011;24875;48.436;10.298;2023-04-03T14:39:37;2.80;;;1.47;;
39140;SDS011;24875;48.436;10.298;2023-04-03T14:42:06;3.20;;;1.80;;
39140;SDS011;24875;48.436;10.298;2023-04-03T14:44:37;2.03;;;1.20;;
39140;SDS011;24875;48.436;10.298;2023-04-03T14:47:04;3.40;;;1.73;;
39140;SDS011;24875;48.436;10.298;2023-04-03T14:49:30;2.80;;;1.67;;
39140;SDS011;24875;48.436;10.298;2023-04-03T14:51:57;3.27;;;1.60;;
39140;SDS011;24875;48.436;10.298;2023-04-03T14:54:24;4.40;;;1.80;;
39140;SDS011;24875;48.436;10.298;2023-04-03T14:56:52;5.77;;;1.23;;
39140;SDS011;24875;48.436;10.298;2023-04-03T14:59:21;4.37;;;1.70;;
39140;SDS011;24875;48.436;10.298;2023-04-03T15:01:48;2.47;;;1.70;;
39140;SDS011;24875;48.436;10.298;2023-04-03T15:04:15;2.33;;;1.40;;
39140;SDS011;24875;48.436;10.298;2023-04-03T15:06:43;2.80;;;1.50;;
39140;SDS011;24875;48.436;10.298;2023-04-03T15:09:12;4.67;;;1.57;;
39140;SDS011;24875;48.436;10.298;2023-04-03T15:11:45;3.13;;;1.40;;
39140;SDS011;24875;48.436;10.298;2023-04-03T15:14:12;2.13;;;1.20;;
39140;SDS011;24875;48.436;10.298;2023-04-03T15:16:40;6.17;;;1.53;;
39140;SDS011;24875;48.436;10.298;2023-04-03T15:19:06;3.97;;;1.40;;
39140;SDS011;24875;48.436;10.298;2023-04-03T15:21:33;8.43;;;1.50;;
39140;SDS011;24875;48.436;10.298;2023-04-03T15:23:59;2.27;;;1.70;;
39140;SDS011;24875;48.436;10.298;2023-04-03T15:26:26;2.83;;;1.60;;
39140;SDS011;24875;48.436;10.298;2023-04-03T15:28:52;1.73;;;1.23;;
39140;SDS011;24875;48.436;10.298;2023-04-03T15:31:19;2.03;;;1.20;;
39140;SDS011;24875;48.436;10.298;2023-04-03T15:33:47;3.10;;;1.70;;
39140;SDS011;24875;48.436;10.298;2023-04-03T15:36:13;2.53;;;1.47;;
39140;SDS011;24875;48.436;10.298;2023-04-03T15:38:40;3.83;;;1.37;;
39140;SDS011;24875;48.436;10.298;2023-04-03T15:41:06;2.33;;;1.43;;
39140;SDS011;24875;48.436;10.298;2023-04-03T15:43:33;3.63;;;1.13;;
39140;SDS011;24875;48.436;10.298;2023-04-03T15:46:00;3.27;;;1.50;;
39140;SDS011;24875;48.436;10.298;2023-04-03T15:48:27;3.73;;;1.40;;
39140;SDS011;24875;48.436;10.298;2023-04-03T15:50:55;1.13;;;1.03;;
39140;SDS011;24875;48.436;10.298;2023-04-03T15:53:22;2.70;;;1.10;;
39140;SDS011;24875;48.436;10.298;2023-04-03T15:55:49;2.80;;;1.23;;
39140;SDS011;24875;48.436;10.298;2023-04-03T15:58:15;1.57;;;1.20;;
39140;SDS011;24875;48.436;10.298;2023-04-03T16:00:42;1.87;;;1.17;;
39140;SDS011;24875;48.436;10.298;2023-04-03T16:03:09;4.43;;;1.50;;
39140;SDS011;24875;48.436;10.298;2023-04-03T16:05:38;3.23;;;1.40;;
39140;SDS011;24875;48.436;10.298;2023-04-03T16:08:07;3.13;;;1.30;;
39140;SDS011;24875;48.436;10.298;2023-04-03T16:10:34;2.38;;;1.52;;
39140;SDS011;24875;48.436;10.298;2023-04-03T16:13:00;1.60;;;1.08;;
